createdAt,value
2022-12-16T00:06:59.742Z,72.22
2022-12-16T00:12:02.682Z,72.44
2022-12-16T00:17:05.647Z,72.39
2022-12-16T00:22:13.765Z,72.35
2022-12-16T00:27:16.845Z,72.38
2022-12-16T00:32:20.624Z,72.07
2022-12-16T00:37:28.723Z,72.24
2022-12-16T00:42:31.518Z,72.20
2022-12-16T00:47:34.464Z,72.32
2022-12-16T00:52:42.575Z,72.52
2022-12-16T00:57:46.266Z,72.37
2022-12-16T01:02:53.681Z,72.32
2022-12-16T01:08:02.955Z,72.34
2022-12-16T01:18:27.472Z,72.31
2022-12-16T01:23:30.516Z,72.40
2022-12-16T01:28:33.956Z,72.56
2022-12-16T01:33:43.157Z,72.37
2022-12-16T01:38:46.935Z,72.38
2022-12-16T01:49:13.890Z,72.16
2022-12-16T01:54:21.046Z,72.14
2022-12-16T01:59:27.420Z,72.29
2022-12-16T02:04:36.450Z,72.45
2022-12-16T02:09:39.237Z,72.39
2022-12-16T02:15:00.418Z,72.32
2022-12-16T02:26:13.110Z,72.04
2022-12-16T02:31:28.098Z,72.06
2022-12-16T02:36:48.973Z,72.01
2022-12-16T02:52:37.278Z,72.29
2022-12-16T03:14:17.386Z,72.29
2022-12-16T03:19:22.413Z,72.44
2022-12-16T03:24:26.025Z,72.42
2022-12-16T03:29:42.450Z,72.55
2022-12-16T03:45:44.728Z,72.35
2022-12-16T03:50:54.617Z,72.47
2022-12-16T03:55:58.079Z,72.42
2022-12-16T04:01:06.238Z,72.24
2022-12-16T04:06:09.605Z,72.29
2022-12-16T04:11:12.535Z,72.41
2022-12-16T04:32:15.095Z,72.03
2022-12-16T04:37:17.858Z,71.98
2022-12-16T04:42:20.659Z,71.90
2022-12-16T04:47:28.784Z,71.97
2022-12-16T05:08:36.261Z,72.36
2022-12-16T05:13:39.593Z,72.51
2022-12-16T05:18:43.446Z,72.51
2022-12-16T05:23:51.749Z,72.64
2022-12-16T05:39:45.127Z,72.39
2022-12-16T05:50:09.040Z,72.26
2022-12-16T05:55:14.100Z,72.41
2022-12-16T06:00:17.299Z,72.42
2022-12-16T06:05:25.406Z,72.53
2022-12-16T06:10:28.190Z,72.64
2022-12-16T06:20:52.827Z,72.59
2022-12-16T06:25:55.844Z,72.69
2022-12-16T06:30:58.762Z,72.71
2022-12-16T06:36:07.575Z,72.69
2022-12-16T06:41:10.370Z,72.68
2022-12-16T06:51:33.605Z,72.57
2022-12-16T06:56:36.374Z,72.65
2022-12-16T07:01:40.150Z,72.74
2022-12-16T07:06:51.236Z,72.68
2022-12-16T07:22:33.158Z,72.56
2022-12-16T07:27:35.954Z,72.82
2022-12-16T07:32:39.206Z,72.79
2022-12-16T07:43:06.815Z,72.67
2022-12-16T07:53:31.798Z,73.26
2022-12-16T08:03:55.821Z,73.57
2022-12-16T08:08:58.975Z,73.84
2022-12-16T08:14:02.658Z,74.18
2022-12-16T08:19:12.606Z,74.19
2022-12-16T08:24:16.238Z,74.00
2022-12-16T08:29:43.025Z,74.13
2022-12-16T08:34:49.698Z,74.12
2022-12-16T08:40:17.685Z,73.86
2022-12-16T08:45:15.616Z,73.73
2022-12-16T08:50:24.306Z,73.55
2022-12-16T08:55:29.662Z,73.29
2022-12-16T09:00:33.168Z,73.08
2022-12-16T09:05:41.299Z,73.18
2022-12-16T09:10:44.095Z,73.20
2022-12-16T09:15:47.258Z,73.56
2022-12-16T09:31:36.738Z,73.50
2022-12-16T09:36:39.760Z,73.80
2022-12-16T09:41:45.205Z,73.96
2022-12-16T09:47:08.192Z,73.98
2022-12-16T09:52:18.677Z,73.67
2022-12-16T10:02:50.152Z,73.52
2022-12-16T10:08:06.164Z,73.40
2022-12-16T10:13:18.394Z,73.38
2022-12-16T10:18:38.548Z,73.51
2022-12-16T10:23:50.868Z,73.39
2022-12-16T10:29:01.040Z,73.33
2022-12-16T10:34:12.960Z,73.30
2022-12-16T10:39:25.022Z,73.23
2022-12-16T10:44:35.563Z,73.38
2022-12-16T10:49:52.322Z,73.24
2022-12-16T10:55:04.869Z,73.01
2022-12-16T11:05:45.950Z,72.82
2022-12-16T11:10:48.943Z,72.66
2022-12-16T11:21:27.211Z,72.57
2022-12-16T11:26:35.905Z,72.26
2022-12-16T11:31:39.620Z,71.96
2022-12-16T11:36:50.356Z,71.82
2022-12-16T11:52:57.762Z,71.98
2022-12-16T11:58:12.437Z,71.94
2022-12-16T12:03:22.715Z,71.85
2022-12-16T12:08:40.578Z,71.70
2022-12-16T12:19:21.362Z,71.88
2022-12-16T12:24:32.331Z,71.78
2022-12-16T12:29:48.588Z,71.71
2022-12-16T12:35:05.372Z,71.91
2022-12-16T12:46:01.133Z,71.79
2022-12-16T12:56:38.816Z,71.62
2022-12-16T13:01:44.632Z,71.53
2022-12-16T13:12:42.156Z,71.43
2022-12-16T13:18:22.542Z,71.32
2022-12-16T13:23:36.831Z,71.19
2022-12-16T13:29:10.546Z,71.22
2022-12-16T13:34:26.191Z,71.27
2022-12-16T13:39:31.193Z,70.98
2022-12-16T13:45:16.737Z,70.72
2022-12-16T13:50:38.533Z,70.93
2022-12-16T13:55:47.783Z,70.80
2022-12-16T14:16:54.850Z,71.23
2022-12-16T14:22:07.195Z,71.22
2022-12-16T14:37:58.806Z,71.31
2022-12-16T14:43:02.830Z,71.41
2022-12-16T14:48:16.247Z,71.34
2022-12-16T14:53:26.408Z,71.40
2022-12-16T14:58:29.236Z,71.48
2022-12-16T15:03:39.001Z,71.54
2022-12-16T15:08:51.723Z,71.65
2022-12-16T15:14:04.282Z,71.52
2022-12-16T15:19:07.750Z,71.58
2022-12-16T15:24:19.524Z,71.62
2022-12-16T15:29:29.799Z,71.70
2022-12-16T15:34:39.099Z,71.88
2022-12-16T15:45:19.112Z,71.88
2022-12-16T15:50:25.514Z,71.80
2022-12-16T16:00:59.131Z,72.35
2022-12-16T16:11:24.007Z,72.45
2022-12-16T16:16:26.970Z,72.39
2022-12-16T16:21:31.020Z,72.08
2022-12-16T16:37:23.296Z,71.52
2022-12-16T16:42:26.092Z,71.41
2022-12-16T16:47:29.331Z,71.25
2022-12-16T16:52:38.008Z,71.61
2022-12-16T17:03:01.773Z,72.13
2022-12-16T17:08:05.413Z,72.26
2022-12-16T17:13:13.382Z,72.38
2022-12-16T17:34:13.900Z,71.88
2022-12-16T17:39:16.630Z,71.59
2022-12-16T17:44:21.153Z,71.14
2022-12-16T17:54:51.156Z,71.20
2022-12-16T17:59:54.785Z,71.19
2022-12-16T18:04:57.685Z,71.29
2022-12-16T18:10:06.612Z,71.28
2022-12-16T18:15:10.588Z,71.28
2022-12-16T18:20:14.645Z,70.77
2022-12-16T18:25:22.673Z,70.82
2022-12-16T18:35:54.130Z,70.66
2022-12-16T18:51:31.889Z,70.68
2022-12-16T19:01:56.591Z,70.45
2022-12-16T19:17:43.317Z,71.09
2022-12-16T19:22:46.087Z,71.43
2022-12-16T19:27:48.886Z,71.57
2022-12-16T19:32:56.995Z,71.48
2022-12-16T19:37:59.811Z,71.56
2022-12-16T19:48:23.391Z,71.12
2022-12-16T19:58:49.193Z,71.19
2022-12-16T20:03:56.628Z,70.80
2022-12-16T20:14:18.516Z,71.19
2022-12-16T20:19:22.486Z,71.26
2022-12-16T20:24:26.760Z,71.29
2022-12-16T20:29:34.922Z,71.32
2022-12-16T20:34:37.713Z,71.29
2022-12-16T20:39:40.830Z,70.67
2022-12-16T20:44:48.952Z,70.22
2022-12-16T20:49:51.742Z,70.25
2022-12-16T20:54:56.188Z,70.03
2022-12-16T21:05:26.074Z,70.90
2022-12-16T21:10:29.079Z,71.11
2022-12-16T21:15:32.376Z,71.18
2022-12-16T21:20:53.201Z,71.36
2022-12-16T21:26:00.162Z,71.57
2022-12-16T21:31:03.057Z,71.77
2022-12-16T21:36:11.407Z,71.63
2022-12-16T21:41:14.411Z,71.68
2022-12-16T21:46:17.534Z,71.68
2022-12-16T21:51:25.938Z,71.54
2022-12-16T21:56:28.752Z,71.51
2022-12-16T22:06:52.739Z,71.34
2022-12-16T22:22:38.096Z,71.02
2022-12-16T22:33:02.432Z,71.32
2022-12-16T22:38:07.219Z,71.57
2022-12-16T22:43:09.960Z,71.79
2022-12-16T22:48:18.234Z,72.03
2022-12-16T22:58:41.800Z,72.22
2022-12-16T23:03:45.633Z,72.51
2022-12-16T23:08:49.264Z,72.50
2022-12-16T23:14:01.053Z,72.53
2022-12-16T23:19:03.964Z,72.34
2022-12-16T23:24:09.813Z,72.11
2022-12-16T23:29:18.284Z,71.86
2022-12-16T23:34:21.192Z,71.66
2022-12-16T23:50:03.029Z,71.28
2022-12-16T23:55:06.662Z,71.14
